createdAt,value
2019-05-13T00:00:34.191Z,5.69
2019-05-13T00:03:03.683Z,5.57
2019-05-13T00:05:33.831Z,5.65
2019-05-13T00:08:03.433Z,5.65
2019-05-13T00:10:34.982Z,5.75
2019-05-13T00:13:04.378Z,5.80
2019-05-13T00:15:33.943Z,5.75
2019-05-13T00:18:03.862Z,5.64
2019-05-13T00:20:33.781Z,5.56
2019-05-13T00:23:03.858Z,5.63
2019-05-13T00:25:33.819Z,5.64
2019-05-13T00:30:44.254Z,5.53
2019-05-13T00:33:13.791Z,5.52
2019-05-13T00:35:44.008Z,5.41
2019-05-13T00:38:13.889Z,5.38
2019-05-13T00:40:44.099Z,5.43
2019-05-13T00:43:14.058Z,5.42
2019-05-13T00:45:44.180Z,5.38
2019-05-13T00:48:14.094Z,5.28
2019-05-13T00:50:44.052Z,5.24
2019-05-13T00:53:13.373Z,5.24
2019-05-13T00:55:41.494Z,5.14
2019-05-13T01:00:51.121Z,4.97
2019-05-13T01:03:21.059Z,5.00
2019-05-13T01:05:50.982Z,4.93
2019-05-13T01:08:20.915Z,4.99
2019-05-13T01:10:50.859Z,5.11
2019-05-13T01:13:20.790Z,5.10
2019-05-13T01:15:50.772Z,5.11
2019-05-13T01:18:23.287Z,5.04
2019-05-13T01:20:50.942Z,5.02
2019-05-13T01:23:20.858Z,5.02
2019-05-13T01:25:51.145Z,4.98
2019-05-13T01:31:00.389Z,4.78
2019-05-13T01:33:30.329Z,4.85
2019-05-13T01:36:00.269Z,4.91
2019-05-13T01:38:30.585Z,4.82
2019-05-13T01:41:00.553Z,4.88
2019-05-13T01:46:10.208Z,4.64
2019-05-13T01:48:40.138Z,4.70
2019-05-13T01:51:10.073Z,4.72
2019-05-13T01:53:40.264Z,4.60
2019-05-13T01:56:10.205Z,4.67
2019-05-13T02:01:19.831Z,4.70
2019-05-13T02:03:50.047Z,4.75
2019-05-13T02:06:19.981Z,4.72
2019-05-13T02:11:29.419Z,4.46
2019-05-13T02:13:59.168Z,4.53
2019-05-13T02:16:29.113Z,4.61
2019-05-13T02:18:59.022Z,4.63
2019-05-13T02:21:29.266Z,4.41
2019-05-13T02:23:59.195Z,4.38
2019-05-13T02:29:08.472Z,4.27
2019-05-13T02:31:46.570Z,4.29
2019-05-13T02:34:08.348Z,4.34
2019-05-13T02:36:38.285Z,4.27
2019-05-13T02:41:47.558Z,4.18
2019-05-13T02:44:17.949Z,4.18
2019-05-13T02:46:48.071Z,4.01
2019-05-13T02:49:18.282Z,3.95
2019-05-13T02:51:48.238Z,3.97
2019-05-13T02:54:18.525Z,4.19
2019-05-13T02:56:48.476Z,4.05
2019-05-13T03:01:57.721Z,4.19
2019-05-13T03:04:27.651Z,4.17
2019-05-13T03:06:57.932Z,4.20
2019-05-13T03:09:27.856Z,3.93
2019-05-13T03:11:58.155Z,3.73
2019-05-13T03:14:28.079Z,3.62
2019-05-13T03:16:58.004Z,3.62
2019-05-13T03:19:27.924Z,3.67
2019-05-13T03:21:57.878Z,3.52
2019-05-13T03:24:27.785Z,3.64
2019-05-13T03:26:57.733Z,3.71
2019-05-13T03:29:27.710Z,3.60
2019-05-13T03:31:57.626Z,3.71
2019-05-13T03:34:27.901Z,3.79
2019-05-13T03:36:58.231Z,3.79
2019-05-13T03:39:27.707Z,3.83
2019-05-13T03:41:57.655Z,3.65
2019-05-13T03:44:27.941Z,3.68
2019-05-13T03:46:57.874Z,3.70
2019-05-13T03:49:27.803Z,3.78
2019-05-13T03:51:57.730Z,3.81
2019-05-13T03:54:27.677Z,3.77
2019-05-13T03:56:57.611Z,3.78
2019-05-13T03:59:27.535Z,3.86
2019-05-13T04:01:57.470Z,3.84
2019-05-13T04:04:27.505Z,3.73
2019-05-13T04:06:57.430Z,3.80
2019-05-13T04:09:34.839Z,3.68
2019-05-13T04:11:57.306Z,3.68
2019-05-13T04:14:27.219Z,3.66
2019-05-13T04:16:57.152Z,3.62
2019-05-13T04:19:27.082Z,3.70
2019-05-13T04:21:57.024Z,3.77
2019-05-13T04:24:27.252Z,3.93
2019-05-13T04:26:57.198Z,3.93
2019-05-13T04:29:27.134Z,3.95
2019-05-13T04:34:36.727Z,3.91
2019-05-13T04:37:06.956Z,4.08
2019-05-13T04:39:47.729Z,4.06
2019-05-13T04:42:07.092Z,4.06
2019-05-13T04:44:37.032Z,3.93
2019-05-13T04:47:06.958Z,3.93
2019-05-13T04:49:36.895Z,3.98
2019-05-13T04:52:06.823Z,4.13
2019-05-13T04:54:36.755Z,4.14
2019-05-13T04:57:06.681Z,4.37
2019-05-13T04:59:40.370Z,4.37
2019-05-13T05:02:36.545Z,4.60
2019-05-13T05:07:57.314Z,5.10
2019-05-13T05:13:36.293Z,5.27
2019-05-13T05:19:23.691Z,5.61
2019-05-13T05:27:58.486Z,6.38
2019-05-13T05:30:48.916Z,6.47
2019-05-13T05:33:42.756Z,6.62
2019-05-13T05:36:43.575Z,6.62
2019-05-13T05:42:02.177Z,6.77
2019-05-13T05:44:32.406Z,6.74
2019-05-13T05:47:02.601Z,6.73
2019-05-13T05:49:32.017Z,6.90
2019-05-13T05:52:01.740Z,6.97
2019-05-13T05:57:12.157Z,6.84
2019-05-13T05:59:42.537Z,7.01
2019-05-13T06:02:12.109Z,7.21
2019-05-13T06:04:43.091Z,7.40
2019-05-13T06:07:11.592Z,7.61
2019-05-13T06:09:42.205Z,7.85
2019-05-13T06:12:11.997Z,7.83
2019-05-13T06:14:42.126Z,7.88
2019-05-13T06:17:11.517Z,8.22
2019-05-13T06:19:41.906Z,8.17
2019-05-13T06:22:12.108Z,8.27
2019-05-13T06:24:42.078Z,8.40
2019-05-13T06:27:11.863Z,8.63
2019-05-13T06:29:42.324Z,8.65
2019-05-13T06:32:19.003Z,8.55
2019-05-13T06:34:41.512Z,8.61
2019-05-13T06:37:11.427Z,8.67
2019-05-13T06:39:41.382Z,8.55
2019-05-13T06:42:11.683Z,8.55
2019-05-13T06:44:41.471Z,8.47
2019-05-13T06:47:11.419Z,8.61
2019-05-13T06:49:42.604Z,8.79
2019-05-13T06:52:11.816Z,9.06
2019-05-13T06:54:41.841Z,9.10
2019-05-13T06:57:13.125Z,9.09
2019-05-13T06:59:41.853Z,8.92
2019-05-13T07:02:09.433Z,8.95
2019-05-13T07:04:41.428Z,9.29
2019-05-13T07:07:14.073Z,9.33
2019-05-13T07:09:42.455Z,9.38
2019-05-13T07:12:11.356Z,9.60
2019-05-13T07:14:41.355Z,9.31
2019-05-13T07:17:09.403Z,9.52
2019-05-13T07:19:41.413Z,9.53
2019-05-13T07:22:11.470Z,9.63
2019-05-13T07:24:41.449Z,9.68
2019-05-13T07:27:09.134Z,9.98
2019-05-13T07:29:39.071Z,9.97
2019-05-13T07:32:09.005Z,9.83
2019-05-13T07:34:38.945Z,10.10
2019-05-13T07:37:11.200Z,10.24
2019-05-13T07:39:38.849Z,10.17
2019-05-13T07:42:08.777Z,10.30
2019-05-13T07:44:38.707Z,10.50
2019-05-13T07:47:08.675Z,10.33
2019-05-13T07:49:38.601Z,10.37
2019-05-13T07:52:08.560Z,10.73
2019-05-13T07:54:38.480Z,11.04
2019-05-13T07:57:08.426Z,11.09
2019-05-13T07:59:38.347Z,10.88
2019-05-13T08:02:08.290Z,10.92
2019-05-13T08:04:38.214Z,10.88
2019-05-13T08:07:08.160Z,10.96
2019-05-13T08:09:38.085Z,10.82
2019-05-13T08:12:11.046Z,11.03
2019-05-13T08:14:37.954Z,11.13
2019-05-13T08:17:08.212Z,11.40
2019-05-13T08:19:38.134Z,11.47
2019-05-13T08:22:08.076Z,11.48
2019-05-13T08:24:38.105Z,11.44
2019-05-13T08:27:08.047Z,11.49
2019-05-13T08:29:37.998Z,11.59
2019-05-13T08:32:07.932Z,11.71
2019-05-13T08:34:38.141Z,11.76
2019-05-13T08:37:08.073Z,11.80
2019-05-13T08:39:38.691Z,11.80
2019-05-13T08:42:16.100Z,11.66
2019-05-13T08:44:38.175Z,11.83
2019-05-13T08:47:08.125Z,12.00
2019-05-13T08:49:38.054Z,12.01
2019-05-13T08:52:08.012Z,11.76
2019-05-13T08:54:38.239Z,11.87
2019-05-13T08:57:08.186Z,12.12
2019-05-13T09:02:17.817Z,12.16
2019-05-13T09:04:47.775Z,12.19
2019-05-13T09:07:21.127Z,12.09
2019-05-13T09:09:47.609Z,12.39
2019-05-13T09:12:29.496Z,12.17
2019-05-13T09:14:47.490Z,12.20
2019-05-13T09:17:17.426Z,12.33
2019-05-13T09:19:47.350Z,12.64
2019-05-13T09:22:17.294Z,12.77
2019-05-13T09:24:47.217Z,12.66
2019-05-13T09:27:17.774Z,12.77
2019-05-13T09:29:47.690Z,12.60
2019-05-13T09:32:17.626Z,12.82
2019-05-13T09:34:47.561Z,12.58
2019-05-13T09:37:17.502Z,12.80
2019-05-13T09:39:47.424Z,12.97
2019-05-13T09:42:17.382Z,12.70
2019-05-13T09:47:28.452Z,12.93
2019-05-13T09:49:56.622Z,13.08
2019-05-13T09:52:26.563Z,13.23
2019-05-13T09:54:56.836Z,13.24
2019-05-13T09:57:26.793Z,13.27
2019-05-13T09:59:56.724Z,13.13
2019-05-13T10:02:26.658Z,12.99
2019-05-13T10:07:36.237Z,13.19
2019-05-13T10:10:11.687Z,13.62
2019-05-13T10:12:39.074Z,13.59
2019-05-13T10:15:09.007Z,13.65
2019-05-13T10:17:42.454Z,13.35
2019-05-13T10:20:08.904Z,13.48
2019-05-13T10:22:41.153Z,13.65
2019-05-13T10:25:09.106Z,13.39
2019-05-13T10:30:18.662Z,13.66
2019-05-13T10:32:48.607Z,13.38
2019-05-13T10:35:18.577Z,13.54
2019-05-13T10:40:27.813Z,13.57
2019-05-13T10:42:57.779Z,13.62
2019-05-13T10:45:27.976Z,13.53
2019-05-13T10:47:58.192Z,13.72
2019-05-13T10:50:28.147Z,13.77
2019-05-13T10:52:58.096Z,13.79
2019-05-13T10:55:28.027Z,13.71
2019-05-13T10:57:57.975Z,13.52
2019-05-13T11:00:42.791Z,13.43
2019-05-13T11:03:12.739Z,13.45
2019-05-13T11:05:44.777Z,13.35
2019-05-13T11:08:13.189Z,13.48
2019-05-13T11:10:43.127Z,13.73
2019-05-13T11:13:13.075Z,13.70
2019-05-13T11:15:46.109Z,13.64
2019-05-13T11:18:19.110Z,13.76
2019-05-13T11:20:42.881Z,13.80
2019-05-13T11:23:12.854Z,14.03
2019-05-13T11:25:42.791Z,14.09
2019-05-13T11:28:12.730Z,13.88
2019-05-13T11:30:42.728Z,13.89
2019-05-13T11:33:12.673Z,13.82
2019-05-13T11:35:42.922Z,13.80
2019-05-13T11:38:12.882Z,13.89
2019-05-13T11:40:43.168Z,13.90
2019-05-13T11:43:13.412Z,14.22
2019-05-13T11:45:43.715Z,14.24
2019-05-13T11:48:13.934Z,14.05
2019-05-13T11:50:50.074Z,14.10
2019-05-13T11:53:31.529Z,14.11
2019-05-13T11:55:43.779Z,14.28
2019-05-13T11:58:14.280Z,13.97
2019-05-13T12:00:56.202Z,14.10
2019-05-13T12:03:26.148Z,14.28
2019-05-13T12:05:56.076Z,14.06
2019-05-13T12:08:26.358Z,14.18
2019-05-13T12:10:56.284Z,14.32
2019-05-13T12:13:26.577Z,14.41
2019-05-13T12:15:56.512Z,14.23
2019-05-13T12:21:05.779Z,14.26
2019-05-13T12:23:35.724Z,14.46
2019-05-13T12:26:05.683Z,14.53
2019-05-13T12:28:35.909Z,14.53
2019-05-13T12:31:05.836Z,14.67
2019-05-13T12:33:35.777Z,14.60
2019-05-13T12:36:05.714Z,14.37
2019-05-13T12:38:35.945Z,14.51
2019-05-13T12:41:05.888Z,14.66
2019-05-13T12:43:35.815Z,14.44
2019-05-13T12:46:06.093Z,14.52
2019-05-13T12:48:36.383Z,14.61
2019-05-13T12:51:06.302Z,14.68
2019-05-13T12:53:36.221Z,14.64
2019-05-13T12:56:06.209Z,14.82
2019-05-13T12:58:36.087Z,14.78
2019-05-13T13:01:06.047Z,14.59
2019-05-13T13:03:35.991Z,14.58
2019-05-13T13:06:30.010Z,14.53
2019-05-13T13:08:43.751Z,14.47
2019-05-13T13:11:05.940Z,14.51
2019-05-13T13:13:56.783Z,14.80
2019-05-13T13:16:05.680Z,14.37
2019-05-13T13:18:35.651Z,14.74
2019-05-13T13:21:07.891Z,14.46
2019-05-13T13:23:35.511Z,14.49
2019-05-13T13:26:13.898Z,14.56
2019-05-13T13:28:35.374Z,14.61
2019-05-13T13:31:05.310Z,14.35
2019-05-13T13:33:35.239Z,14.37
2019-05-13T13:36:06.194Z,14.38
2019-05-13T13:38:35.426Z,14.34
2019-05-13T13:41:05.366Z,14.43
2019-05-13T13:43:37.177Z,14.79
2019-05-13T13:46:17.152Z,14.60
2019-05-13T13:48:35.495Z,14.79
2019-05-13T13:51:05.528Z,14.82
2019-05-13T13:53:35.372Z,14.63
2019-05-13T13:56:05.575Z,14.94
2019-05-13T13:58:35.502Z,14.56
2019-05-13T14:01:12.499Z,14.41
2019-05-13T14:03:35.400Z,14.37
2019-05-13T14:06:06.494Z,14.43
2019-05-13T14:08:35.617Z,14.40
2019-05-13T14:11:05.554Z,14.38
2019-05-13T14:13:35.935Z,14.16
2019-05-13T14:16:20.590Z,14.35
2019-05-13T14:18:35.789Z,14.64
2019-05-13T14:21:05.699Z,14.63
2019-05-13T14:23:37.866Z,14.57
2019-05-13T14:26:05.570Z,14.85
2019-05-13T14:28:35.530Z,14.73
2019-05-13T14:31:05.727Z,14.44
2019-05-13T14:33:35.833Z,14.30
2019-05-13T14:36:05.648Z,14.22
2019-05-13T14:38:35.730Z,14.25
2019-05-13T14:41:09.000Z,14.46
2019-05-13T14:43:35.718Z,14.24
2019-05-13T14:46:05.678Z,14.24
2019-05-13T14:48:35.595Z,14.33
2019-05-13T14:53:45.505Z,14.21
2019-05-13T14:56:15.446Z,14.37
2019-05-13T14:58:45.376Z,14.18
2019-05-13T15:01:19.897Z,14.34
2019-05-13T15:03:45.238Z,14.46
2019-05-13T15:06:15.176Z,14.40
2019-05-13T15:08:45.382Z,14.25
2019-05-13T15:11:15.327Z,14.00
2019-05-13T15:13:45.255Z,13.72
2019-05-13T15:16:15.185Z,13.96
2019-05-13T15:18:45.138Z,13.64
2019-05-13T15:21:15.079Z,13.70
2019-05-13T15:23:45.027Z,13.49
2019-05-13T15:26:14.979Z,13.39
2019-05-13T15:31:24.234Z,13.17
2019-05-13T15:33:54.168Z,13.19
2019-05-13T15:36:24.114Z,13.39
2019-05-13T15:38:54.062Z,13.59
2019-05-13T15:41:23.979Z,13.78
2019-05-13T15:46:33.551Z,13.80
2019-05-13T15:49:03.491Z,13.95
2019-05-13T15:51:33.449Z,13.74
2019-05-13T15:54:03.711Z,13.85
2019-05-13T15:56:33.659Z,13.70
2019-05-13T15:59:03.934Z,13.74
2019-05-13T16:01:33.885Z,13.62
2019-05-13T16:04:03.853Z,13.77
2019-05-13T16:06:33.783Z,13.94
2019-05-13T16:11:43.887Z,13.96
2019-05-13T16:14:14.160Z,13.72
2019-05-13T16:16:44.384Z,13.53
2019-05-13T16:19:14.748Z,13.46
2019-05-13T16:21:44.686Z,13.37
2019-05-13T16:24:14.621Z,13.39
2019-05-13T16:29:23.902Z,13.48
2019-05-13T16:31:53.851Z,13.28
2019-05-13T16:34:23.842Z,13.31
2019-05-13T16:36:53.768Z,12.97
2019-05-13T16:39:23.713Z,13.01
2019-05-13T16:41:53.649Z,12.93
2019-05-13T16:44:23.576Z,13.00
2019-05-13T16:46:53.499Z,12.75
2019-05-13T16:49:23.492Z,12.71
2019-05-13T16:51:53.438Z,12.77
2019-05-13T16:54:23.384Z,12.89
2019-05-13T16:56:53.319Z,12.76
2019-05-13T17:02:03.079Z,12.89
2019-05-13T17:04:33.027Z,12.91
2019-05-13T17:07:02.951Z,12.76
2019-05-13T17:09:33.273Z,12.75
2019-05-13T17:12:03.180Z,12.85
2019-05-13T17:14:33.478Z,12.76
2019-05-13T17:17:03.418Z,12.40
2019-05-13T17:19:33.364Z,12.40
2019-05-13T17:22:03.306Z,12.32
2019-05-13T17:24:33.241Z,12.32
2019-05-13T17:27:03.224Z,12.31
2019-05-13T17:29:33.191Z,12.26
2019-05-13T17:32:03.137Z,12.31
2019-05-13T17:37:12.404Z,12.41
2019-05-13T17:39:42.355Z,12.58
2019-05-13T17:42:12.444Z,12.64
2019-05-13T17:47:21.938Z,12.32
2019-05-13T17:49:52.233Z,12.29
2019-05-13T17:52:22.229Z,12.21
2019-05-13T17:54:51.993Z,12.23
2019-05-13T17:57:21.949Z,12.30
2019-05-13T17:59:52.231Z,12.00
2019-05-13T18:02:21.794Z,12.11
2019-05-13T18:04:52.211Z,12.00
2019-05-13T18:10:01.607Z,11.78
2019-05-13T18:12:31.076Z,11.97
2019-05-13T18:15:02.465Z,11.93
2019-05-13T18:17:31.519Z,11.85
2019-05-13T18:20:02.404Z,11.69
2019-05-13T18:22:31.420Z,11.80
2019-05-13T18:27:41.574Z,11.74
2019-05-13T18:30:11.431Z,11.48
2019-05-13T18:32:40.939Z,11.71
2019-05-13T18:35:12.307Z,11.66
2019-05-13T18:37:41.972Z,11.75
2019-05-13T18:40:11.739Z,11.40
2019-05-13T18:42:42.142Z,11.34
2019-05-13T18:45:11.620Z,11.29
2019-05-13T18:47:41.239Z,11.29
2019-05-13T18:52:52.380Z,11.24
2019-05-13T18:55:20.235Z,11.23
2019-05-13T18:57:51.815Z,11.18
2019-05-13T19:00:21.672Z,11.19
2019-05-13T19:02:50.564Z,11.15
2019-05-13T19:05:21.228Z,11.09
2019-05-13T19:10:31.281Z,10.96
2019-05-13T19:13:01.735Z,10.86
2019-05-13T19:15:31.574Z,10.83
2019-05-13T19:17:59.637Z,10.69
2019-05-13T19:20:31.330Z,10.73
2019-05-13T19:23:01.117Z,10.66
2019-05-13T19:25:31.427Z,10.58
2019-05-13T19:28:02.369Z,10.58
2019-05-13T19:30:31.795Z,10.48
2019-05-13T19:35:42.438Z,10.35
2019-05-13T19:38:12.118Z,10.30
2019-05-13T19:40:41.961Z,10.18
2019-05-13T19:45:49.198Z,10.22
2019-05-13T19:48:21.610Z,10.11
2019-05-13T19:50:49.077Z,9.75
2019-05-13T19:53:19.020Z,9.94
2019-05-13T19:55:48.968Z,9.93
2019-05-13T19:58:18.919Z,9.87
2019-05-13T20:00:48.866Z,9.80
2019-05-13T20:03:18.794Z,9.69
2019-05-13T20:05:48.750Z,9.61
2019-05-13T20:08:18.668Z,9.73
2019-05-13T20:10:48.617Z,9.34
2019-05-13T20:13:18.841Z,9.46
2019-05-13T20:15:48.788Z,9.53
2019-05-13T20:20:58.053Z,9.05
2019-05-13T20:23:27.983Z,9.06
2019-05-13T20:25:57.933Z,9.17
2019-05-13T20:28:27.869Z,9.06
2019-05-13T20:30:57.812Z,9.19
2019-05-13T20:33:27.740Z,9.33
2019-05-13T20:35:57.695Z,9.08
2019-05-13T20:38:27.638Z,9.00
2019-05-13T20:40:57.910Z,8.88
2019-05-13T20:43:27.836Z,8.76
2019-05-13T20:45:57.813Z,8.91
2019-05-13T20:48:27.741Z,8.59
2019-05-13T20:50:57.679Z,8.59
2019-05-13T20:53:27.625Z,8.30
2019-05-13T20:55:57.907Z,8.05
2019-05-13T20:58:28.122Z,8.40
2019-05-13T21:00:58.073Z,8.34
2019-05-13T21:03:27.996Z,8.32
2019-05-13T21:05:57.934Z,8.26
2019-05-13T21:08:28.103Z,8.29
2019-05-13T21:10:58.097Z,8.32
2019-05-13T21:13:28.022Z,8.28
2019-05-13T21:15:58.259Z,8.32
2019-05-13T21:21:07.532Z,8.23
2019-05-13T21:23:37.482Z,8.27
2019-05-13T21:26:07.714Z,8.17
2019-05-13T21:28:37.640Z,8.22
2019-05-13T21:31:07.586Z,8.23
2019-05-13T21:33:37.516Z,8.26
2019-05-13T21:36:07.450Z,8.26
2019-05-13T21:38:37.393Z,8.17
2019-05-13T21:41:07.338Z,8.21
2019-05-13T21:43:37.266Z,8.20
2019-05-13T21:46:07.540Z,8.15
2019-05-13T21:48:37.759Z,8.17
2019-05-13T21:51:07.705Z,8.10
2019-05-13T21:53:37.641Z,8.03
2019-05-13T21:56:07.590Z,8.00
2019-05-13T22:01:16.859Z,7.97
2019-05-13T22:03:46.793Z,7.83
2019-05-13T22:06:16.750Z,7.85
2019-05-13T22:08:46.663Z,7.79
2019-05-13T22:11:16.593Z,7.74
2019-05-13T22:13:46.534Z,7.75
2019-05-13T22:16:16.453Z,7.65
2019-05-13T22:21:25.799Z,7.75
2019-05-13T22:23:56.005Z,7.70
2019-05-13T22:26:25.944Z,7.65
2019-05-13T22:28:56.228Z,7.62
2019-05-13T22:31:26.159Z,7.55
2019-05-13T22:33:56.087Z,7.56
2019-05-13T22:36:26.034Z,7.57
2019-05-13T22:38:55.980Z,7.53
2019-05-13T22:41:25.908Z,7.42
2019-05-13T22:43:58.816Z,7.33
2019-05-13T22:46:26.339Z,7.39
2019-05-13T22:48:56.281Z,7.39
2019-05-13T22:51:26.216Z,7.32
2019-05-13T22:53:56.158Z,7.21
2019-05-13T22:56:26.073Z,7.14
2019-05-13T22:58:56.326Z,7.21
2019-05-13T23:01:26.357Z,7.14
2019-05-13T23:03:56.304Z,7.19
2019-05-13T23:06:26.258Z,7.16
2019-05-13T23:11:35.825Z,7.08
2019-05-13T23:14:09.987Z,7.05
2019-05-13T23:16:36.063Z,6.98
2019-05-13T23:19:06.019Z,6.87
2019-05-13T23:21:36.305Z,6.84
2019-05-13T23:24:06.249Z,6.91
2019-05-13T23:26:36.167Z,6.70
2019-05-13T23:29:06.110Z,6.75
2019-05-13T23:31:36.044Z,6.72
2019-05-13T23:34:05.987Z,6.76
2019-05-13T23:36:36.012Z,6.70
2019-05-13T23:39:05.843Z,6.60
2019-05-13T23:41:35.768Z,6.53
2019-05-13T23:44:05.710Z,6.65
2019-05-13T23:46:35.639Z,6.67
2019-05-13T23:49:05.582Z,6.47
2019-05-13T23:51:35.503Z,6.46
2019-05-13T23:54:05.463Z,6.31
2019-05-13T23:56:35.390Z,6.19
2019-05-13T23:59:05.702Z,6.40
